Time;durP1;ratioP1;P1;durP2;ratioP2;P2;SDS_P1;SDS_P2;PMS_P1;PMS_P2;Temp;Humidity;BMP_temperature;BMP_pressure;BME280_temperature;BME280_humidity;BME280_pressure;Samples;Min_cycle;Max_cycle;Signal;HPM_P1;HPM_P2
2021/01/06 00:02:01;;;;;;;31.77;13.73;;;2.30;73.30;;;;;;5000132;28;20038;-64
2021/01/06 00:04:26;;;;;;;35.42;14.27;;;2.30;73.40;;;;;;5001105;28;20514;-66
2021/01/06 00:06:52;;;;;;;30.13;13.13;;;2.30;73.50;;;;;;5001245;28;20099;-66
2021/01/06 00:09:17;;;;;;;30.15;13.57;;;2.30;73.60;;;;;;5001737;28;20468;-65
2021/01/06 00:11:43;;;;;;;30.40;13.75;;;2.30;73.60;;;;;;5002192;28;20479;-66
2021/01/06 00:14:13;;;;;;;36.58;14.00;;;2.30;73.60;;;;;;5001920;28;20031;-64
2021/01/06 00:16:38;;;;;;;29.52;13.57;;;2.30;73.60;;;;;;5000638;28;20592;-65
2021/01/06 00:19:05;;;;;;;33.38;14.25;;;2.30;73.80;;;;;;5001113;28;20125;-65
2021/01/06 00:21:30;;;;;;;36.13;14.98;;;2.30;73.80;;;;;;5000444;28;20033;-66
2021/01/06 00:23:56;;;;;;;34.40;14.45;;;2.30;73.90;;;;;;4999862;28;20038;-66
2021/01/06 00:26:22;;;;;;;37.03;14.98;;;2.30;73.90;;;;;;4998117;28;20397;-65
2021/01/06 00:28:48;;;;;;;34.05;13.77;;;2.30;74.00;;;;;;4998263;28;20076;-66
2021/01/06 00:31:14;;;;;;;32.00;14.90;;;2.30;74.10;;;;;;5000319;28;20038;-66
2021/01/06 00:33:39;;;;;;;31.80;14.70;;;2.30;74.10;;;;;;5000430;28;20458;-65
2021/01/06 00:36:16;;;;;;;29.05;13.38;;;2.30;74.20;;;;;;5001366;28;20644;-65
2021/01/06 00:38:42;;;;;;;33.17;13.75;;;2.30;74.30;;;;;;5000766;28;20120;-66
2021/01/06 00:41:08;;;;;;;30.77;14.65;;;2.30;74.30;;;;;;4999935;28;20118;-65
2021/01/06 00:43:33;;;;;;;31.25;14.73;;;2.30;74.20;;;;;;5000382;28;20116;-66
2021/01/06 00:45:59;;;;;;;33.95;14.15;;;2.30;74.10;;;;;;4999175;28;20042;-65
2021/01/06 00:48:25;;;;;;;35.90;14.63;;;2.30;74.30;;;;;;5001763;28;20038;-65
2021/01/06 00:50:51;;;;;;;34.13;14.50;;;2.20;74.40;;;;;;5000683;28;20044;-66
2021/01/06 00:53:22;;;;;;;34.17;14.55;;;2.20;74.60;;;;;;4999957;28;20034;-66
2021/01/06 00:55:48;;;;;;;31.85;14.93;;;2.20;74.70;;;;;;5000412;28;20039;-65
2021/01/06 00:58:14;;;;;;;34.28;14.57;;;2.20;74.80;;;;;;5001390;28;20172;-65
2021/01/06 01:00:40;;;;;;;33.72;14.60;;;2.20;74.70;;;;;;4999933;28;20482;-66
2021/01/06 01:03:05;;;;;;;30.88;14.55;;;2.20;74.80;;;;;;5000603;28;20033;-66
2021/01/06 01:05:33;;;;;;;33.75;14.82;;;2.20;74.80;;;;;;5000577;28;20034;-65
2021/01/06 01:08:00;;;;;;;34.40;14.35;;;2.20;74.80;;;;;;5000151;28;20088;-65
2021/01/06 01:10:36;;;;;;;36.17;15.25;;;2.20;75.00;;;;;;4998619;28;20037;-66
2021/01/06 01:13:05;;;;;;;32.92;14.57;;;2.20;75.00;;;;;;5000118;28;20057;-64
2021/01/06 01:15:33;;;;;;;33.13;14.43;;;2.20;74.90;;;;;;4999387;28;20046;-65
2021/01/06 01:17:59;;;;;;;35.53;14.88;;;2.20;74.80;;;;;;4998868;28;20038;-66
2021/01/06 01:20:25;;;;;;;32.63;14.25;;;2.20;74.70;;;;;;4999426;28;20541;-65
2021/01/06 01:22:51;;;;;;;30.25;14.68;;;2.20;74.60;;;;;;4999588;28;20520;-64
2021/01/06 01:25:23;;;;;;;35.45;15.32;;;2.20;74.80;;;;;;4999782;28;20026;-66
2021/01/06 01:27:49;;;;;;;32.45;14.63;;;2.10;75.00;;;;;;5001042;28;20049;-66
2021/01/06 01:30:17;;;;;;;35.67;16.17;;;2.20;75.10;;;;;;4999234;28;20034;-66
2021/01/06 01:32:45;;;;;;;34.75;15.35;;;2.20;75.10;;;;;;4999279;28;20054;-64
2021/01/06 01:35:13;;;;;;;32.28;14.18;;;2.20;75.10;;;;;;4998833;28;20720;-65
2021/01/06 01:37:46;;;;;;;31.73;15.00;;;2.20;75.00;;;;;;4998896;28;20026;-65
2021/01/06 01:40:35;;;;;;;34.13;15.00;;;2.20;75.00;;;;;;5005060;28;20030;-66
2021/01/06 01:43:13;;;;;;;33.10;14.98;;;2.20;75.10;;;;;;4999844;28;20045;-66
2021/01/06 01:45:44;;;;;;;32.78;15.60;;;2.20;75.00;;;;;;4998386;28;20046;-65
2021/01/06 01:48:38;;;;;;;35.60;15.55;;;2.20;75.20;;;;;;4997990;28;20044;-66
2021/01/06 01:51:06;;;;;;;34.70;14.98;;;2.10;75.30;;;;;;5000781;28;20034;-65
2021/01/06 01:53:37;;;;;;;32.83;14.90;;;2.10;75.20;;;;;;5000559;28;20100;-65
2021/01/06 01:56:06;;;;;;;34.60;15.00;;;2.10;75.20;;;;;;4999707;28;20587;-64
2021/01/06 01:58:35;;;;;;;33.22;15.45;;;2.10;75.20;;;;;;5000189;28;20845;-65
2021/01/06 02:01:02;;;;;;;36.63;15.55;;;2.10;75.20;;;;;;5002971;28;20037;-65
2021/01/06 02:03:40;;;;;;;32.92;15.25;;;2.10;75.30;;;;;;4997995;28;20034;-66
2021/01/06 02:06:32;;;;;;;35.17;15.15;;;2.00;75.30;;;;;;4998999;28;20580;-64
2021/01/06 02:09:04;;;;;;;33.58;14.82;;;2.00;75.70;;;;;;4999131;28;20418;-65
2021/01/06 02:11:38;;;;;;;31.77;14.00;;;2.00;75.50;;;;;;5000551;28;20100;-66
2021/01/06 02:14:15;;;;;;;35.60;15.73;;;2.00;75.60;;;;;;4996876;28;20038;-65
2021/01/06 02:16:46;;;;;;;36.95;15.85;;;2.00;75.80;;;;;;4998394;28;20038;-64
2021/01/06 02:19:13;;;;;;;38.42;15.93;;;2.00;75.80;;;;;;4997101;28;20037;-65
2021/01/06 02:21:39;;;;;;;34.60;16.00;;;2.00;75.80;;;;;;4998164;28;20065;-66
2021/01/06 02:24:06;;;;;;;36.72;15.20;;;2.00;75.80;;;;;;4997282;28;20061;-64
2021/01/06 02:26:31;;;;;;;32.67;14.63;;;2.00;75.90;;;;;;4998578;28;20092;-65
2021/01/06 02:28:58;;;;;;;36.67;16.35;;;2.00;76.00;;;;;;4998740;28;20514;-65
2021/01/06 02:31:24;;;;;;;35.03;15.70;;;2.10;76.00;;;;;;4997274;28;20040;-65
2021/01/06 02:33:51;;;;;;;36.10;15.88;;;2.00;75.90;;;;;;4998316;28;20096;-63
2021/01/06 02:36:17;;;;;;;36.20;16.10;;;2.10;76.00;;;;;;4998370;28;20032;-65
2021/01/06 02:38:43;;;;;;;36.75;16.83;;;2.00;76.00;;;;;;4998032;28;20113;-65
2021/01/06 02:41:11;;;;;;;38.38;16.55;;;2.00;76.00;;;;;;4998232;28;20047;-65
2021/01/06 02:43:37;;;;;;;36.22;15.57;;;2.10;76.10;;;;;;4998705;28;20069;-66
2021/01/06 02:46:03;;;;;;;37.35;16.35;;;2.10;76.20;;;;;;4999069;28;20524;-65
2021/01/06 02:48:30;;;;;;;36.45;16.75;;;2.10;76.20;;;;;;4999426;28;20031;-65
2021/01/06 02:51:00;;;;;;;37.97;16.20;;;2.10;76.10;;;;;;5002160;28;20525;-65
2021/01/06 02:53:34;;;;;;;37.30;15.63;;;2.10;76.20;;;;;;5002218;28;20073;-64
2021/01/06 02:56:01;;;;;;;37.22;15.75;;;2.10;76.20;;;;;;5001280;28;20065;-65
2021/01/06 02:58:27;;;;;;;34.17;15.93;;;2.10;76.20;;;;;;5008726;28;20068;-64
2021/01/06 03:00:54;;;;;;;38.38;16.25;;;2.10;76.30;;;;;;5000218;28;20485;-65
2021/01/06 03:03:23;;;;;;;41.05;17.60;;;2.20;76.40;;;;;;5001834;28;20497;-65
2021/01/06 03:06:03;;;;;;;37.25;17.15;;;2.20;76.40;;;;;;5002808;28;20722;-65
2021/01/06 03:08:29;;;;;;;39.13;15.95;;;2.20;76.70;;;;;;5001839;28;20124;-65
2021/01/06 03:10:55;;;;;;;40.22;17.20;;;2.20;76.60;;;;;;5004134;28;20160;-65
2021/01/06 03:13:21;;;;;;;39.28;16.90;;;2.20;76.70;;;;;;5016237;28;20030;-66
2021/01/06 03:15:46;;;;;;;38.13;16.45;;;2.20;76.70;;;;;;5001615;28;20058;-65
2021/01/06 03:18:12;;;;;;;41.08;17.67;;;2.20;76.60;;;;;;5002129;28;20030;-66
2021/01/06 03:20:41;;;;;;;37.70;16.92;;;2.20;76.70;;;;;;5016379;28;20030;-65
2021/01/06 03:23:16;;;;;;;39.35;17.38;;;2.20;76.70;;;;;;5002166;28;20037;-66
2021/01/06 03:25:43;;;;;;;38.35;16.90;;;2.20;76.70;;;;;;5002391;28;20081;-66
2021/01/06 03:28:11;;;;;;;38.75;16.48;;;2.20;76.70;;;;;;5001628;28;20115;-65
2021/01/06 03:30:37;;;;;;;37.05;17.10;;;2.20;76.80;;;;;;5001834;28;20493;-66
2021/01/06 03:33:26;;;;;;;41.53;17.70;;;2.20;76.90;;;;;;5000839;28;20525;-65
2021/01/06 03:35:58;;;;;;;41.22;17.42;;;2.20;76.90;;;;;;5013983;28;20053;-66
2021/01/06 03:38:45;;;;;;;37.10;16.45;;;2.20;77.00;;;;;;5001247;28;20509;-66
2021/01/06 03:41:12;;;;;;;40.13;18.15;;;2.20;76.90;;;;;;5000030;28;20497;-66
2021/01/06 03:43:43;;;;;;;38.92;17.55;;;2.30;77.00;;;;;;5002170;28;20544;-65
2021/01/06 03:46:26;;;;;;;38.58;17.73;;;2.30;77.10;;;;;;5001184;28;20030;-65
2021/01/06 03:49:13;;;;;;;39.85;17.80;;;2.30;77.30;;;;;;5001009;28;20113;-65
2021/01/06 03:51:48;;;;;;;41.90;18.45;;;2.30;77.30;;;;;;5001532;28;20029;-65
2021/01/06 03:54:22;;;;;;;44.30;18.42;;;2.30;76.90;;;;;;5001569;28;20040;-65
2021/01/06 03:56:49;;;;;;;40.55;18.25;;;2.30;77.00;;;;;;5000668;28;20421;-65
2021/01/06 03:59:20;;;;;;;42.38;18.40;;;2.30;76.90;;;;;;5001294;28;20034;-66
2021/01/06 04:02:11;;;;;;;40.90;18.63;;;2.20;77.00;;;;;;4999925;28;20034;-65
2021/01/06 04:04:59;;;;;;;42.17;18.15;;;2.20;77.40;;;;;;5000885;28;20605;-65
2021/01/06 04:07:38;;;;;;;40.00;17.77;;;2.20;77.30;;;;;;5001311;28;20066;-65
2021/01/06 04:10:06;;;;;;;42.65;18.35;;;2.20;77.40;;;;;;5000132;28;20057;-65
2021/01/06 04:12:32;;;;;;;41.47;18.52;;;2.20;77.40;;;;;;5000036;28;20042;-65
2021/01/06 04:14:57;;;;;;;43.13;17.88;;;2.20;77.40;;;;;;5016182;28;20452;-65
2021/01/06 04:17:36;;;;;;;46.35;19.55;;;2.20;77.40;;;;;;5001306;28;20038;-66
2021/01/06 04:20:27;;;;;;;42.25;18.17;;;2.20;77.80;;;;;;4999890;28;20038;-65
2021/01/06 04:22:55;;;;;;;45.25;20.25;;;2.20;78.00;;;;;;5000530;28;20045;-66
2021/01/06 04:25:33;;;;;;;46.60;20.35;;;2.10;77.50;;;;;;5000005;28;20046;-65
2021/01/06 04:28:08;;;;;;;43.90;19.35;;;2.10;77.60;;;;;;5001158;28;20672;-65
2021/01/06 04:30:54;;;;;;;42.88;19.00;;;2.20;77.80;;;;;;5000424;28;20053;-65
2021/01/06 04:33:27;;;;;;;50.00;20.23;;;2.20;78.10;;;;;;5001421;28;20037;-65
2021/01/06 04:35:55;;;;;;;45.40;20.20;;;2.10;77.80;;;;;;5000588;28;20506;-66
2021/01/06 04:38:22;;;;;;;45.08;19.63;;;2.10;77.80;;;;;;5000246;28;20034;-66
2021/01/06 04:40:53;;;;;;;44.63;19.85;;;2.10;78.00;;;;;;5000348;28;20057;-65
2021/01/06 04:43:59;;;;;;;47.13;19.58;;;2.10;78.10;;;;;;5000620;28;20034;-66
2021/01/06 04:46:41;;;;;;;45.80;18.98;;;2.10;78.30;;;;;;4999703;28;20106;-65
2021/01/06 04:49:27;;;;;;;42.92;18.50;;;2.20;78.90;;;;;;5000248;28;20509;-65
2021/01/06 04:52:11;;;;;;;44.00;19.40;;;2.20;78.10;;;;;;5000047;28;20076;-66
2021/01/06 04:54:55;;;;;;;41.22;18.33;;;2.20;78.10;;;;;;4999998;28;20053;-65
2021/01/06 04:57:33;;;;;;;42.63;18.25;;;2.10;77.80;;;;;;4998709;28;20062;-65
2021/01/06 05:00:39;;;;;;;42.15;18.95;;;2.10;77.90;;;;;;5000583;28;20457;-65
2021/01/06 05:03:22;;;;;;;;;;;2.10;78.40;;;;;;4999149;28;20625;-65
2021/01/06 05:06:18;;;;;;;41.15;17.02;;;2.10;78.50;;;;;;4999830;28;19921;-65
2021/01/06 05:08:50;;;;;;;40.10;18.13;;;2.10;78.10;;;;;;4999093;28;20042;-66
2021/01/06 05:11:29;;;;;;;42.33;19.95;;;2.00;78.00;;;;;;4999012;28;20037;-65
2021/01/06 05:14:10;;;;;;;38.42;18.25;;;2.00;78.30;;;;;;4999998;28;20042;-65
2021/01/06 05:16:40;;;;;;;46.00;19.80;;;2.00;78.40;;;;;;5000129;28;20038;-65
2021/01/06 05:19:28;;;;;;;46.25;21.30;;;2.00;78.20;;;;;;4999412;28;20041;-65
2021/01/06 05:21:55;;;;;;;44.55;19.05;;;2.10;78.70;;;;;;4997910;28;20061;-65
2021/01/06 05:24:37;;;;;;;43.17;17.98;;;2.10;78.40;;;;;;4999261;28;20036;-66
2021/01/06 05:27:36;;;;;;;42.53;17.45;;;2.10;78.30;;;;;;4998671;28;20531;-65
2021/01/06 05:30:21;;;;;;;64.05;35.83;;;2.10;78.60;;;;;;4999398;28;20034;-65
2021/01/06 05:32:47;;;;;;;;;;;2.20;78.40;;;;;;4999992;28;20038;-65
2021/01/06 05:35:18;;;;;;;39.42;17.38;;;2.20;78.70;;;;;;4999995;28;19926;-65
2021/01/06 05:37:48;;;;;;;43.95;19.00;;;2.20;78.00;;;;;;4998943;28;20398;-65
2021/01/06 05:40:14;;;;;;;45.85;19.38;;;2.20;78.00;;;;;;4999559;28;20039;-65
2021/01/06 05:42:56;;;;;;;41.95;17.88;;;2.30;78.10;;;;;;4999818;28;20117;-64
2021/01/06 05:45:28;;;;;;;41.10;17.80;;;2.30;78.10;;;;;;4998855;28;20034;-65
2021/01/06 05:47:58;;;;;;;42.20;18.83;;;2.30;78.00;;;;;;4999994;28;20030;-65
2021/01/06 05:50:34;;;;;;;41.30;18.13;;;2.30;78.00;;;;;;5014192;28;20030;-65
2021/01/06 05:53:22;;;;;;;41.78;18.20;;;2.30;78.10;;;;;;4999544;28;20122;-65
2021/01/06 05:55:50;;;;;;;44.05;18.90;;;2.30;78.30;;;;;;4999142;28;20124;-65
2021/01/06 05:58:24;;;;;;;44.70;19.25;;;2.30;77.90;;;;;;4999707;28;20034;-65
2021/01/06 06:00:59;;;;;;;50.35;19.63;;;2.30;78.10;;;;;;5005037;28;20036;-65
2021/01/06 06:03:43;;;;;;;48.15;19.60;;;2.20;78.20;;;;;;4998544;28;20420;-65
2021/01/06 06:06:41;;;;;;;42.30;18.40;;;2.20;78.10;;;;;;5011826;28;20121;-65
2021/01/06 06:09:20;;;;;;;43.03;18.80;;;2.30;78.60;;;;;;4997491;28;20089;-64
2021/01/06 06:12:08;;;;;;;43.60;19.17;;;2.20;78.30;;;;;;5000179;28;20565;-65
2021/01/06 06:15:05;;;;;;;41.00;18.95;;;2.20;78.60;;;;;;4998664;28;20026;-65
2021/01/06 06:17:39;;;;;;;76.50;31.65;;;2.20;78.70;;;;;;4997845;28;20026;-65
2021/01/06 06:20:32;;;;;;;49.28;21.67;;;2.20;78.50;;;;;;4998954;28;20034;-65
2021/01/06 06:23:41;;;;;;;42.40;18.95;;;2.20;78.60;;;;;;4997934;28;20125;-65
2021/01/06 06:26:27;;;;;;;43.92;18.75;;;2.20;78.80;;;;;;5004134;28;20034;-65
2021/01/06 06:29:01;;;;;;;49.67;22.20;;;2.20;78.60;;;;;;4997889;28;20042;-65
2021/01/06 06:31:29;;;;;;;48.13;20.55;;;2.20;78.50;;;;;;4998666;28;20125;-65
2021/01/06 06:33:58;;;;;;;63.65;29.65;;;2.20;78.60;;;;;;5005157;28;20074;-65
2021/01/06 06:36:26;;;;;;;59.97;26.98;;;2.20;78.60;;;;;;4997778;28;20120;-65
2021/01/06 06:38:53;;;;;;;49.97;23.80;;;2.20;78.60;;;;;;4998008;28;20038;-65
2021/01/06 06:41:21;;;;;;;50.22;22.45;;;2.20;78.50;;;;;;4998384;28;20038;-65
2021/01/06 06:43:49;;;;;;;53.28;22.42;;;2.20;78.60;;;;;;4999277;28;20037;-65
2021/01/06 06:46:31;;;;;;;44.60;20.15;;;2.20;78.50;;;;;;4997984;28;20033;-65
2021/01/06 06:49:03;;;;;;;49.17;22.38;;;2.20;78.50;;;;;;4998113;28;20092;-65
2021/01/06 06:51:43;;;;;;;44.95;19.33;;;2.20;78.70;;;;;;4998398;28;20038;-65
2021/01/06 06:54:19;;;;;;;40.50;18.17;;;2.20;78.60;;;;;;4999040;28;20030;-64
2021/01/06 06:56:52;;;;;;;37.95;17.33;;;2.20;79.00;;;;;;4997738;28;20046;-65
2021/01/06 06:59:30;;;;;;;42.28;17.27;;;2.20;78.90;;;;;;4997725;28;20034;-64
2021/01/06 07:02:02;;;;;;;44.58;18.88;;;2.30;79.00;;;;;;4997174;28;20042;-65
2021/01/06 07:04:48;;;;;;;42.88;18.15;;;2.30;78.70;;;;;;4997468;28;20030;-65
2021/01/06 07:07:52;;;;;;;40.78;17.55;;;2.30;78.60;;;;;;4999140;28;20065;-65
2021/01/06 07:10:27;;;;;;;40.40;17.13;;;2.30;78.70;;;;;;4997279;28;20501;-65
2021/01/06 07:13:00;;;;;;;;;;;2.30;78.40;;;;;;4987949;28;21765;-65
2021/01/06 07:16:05;;;;;;;39.60;18.48;;;2.40;78.60;;;;;;4994742;28;19918;-67
2021/01/06 07:18:45;;;;;;;39.53;18.25;;;2.40;78.30;;;;;;4989844;28;20037;-65
2021/01/06 07:21:17;;;;;;;38.17;16.02;;;2.30;78.00;;;;;;4992408;28;21794;-65
2021/01/06 07:23:45;;;;;;;44.03;19.48;;;2.30;78.00;;;;;;4990319;28;20038;-65
2021/01/06 07:26:23;;;;;;;46.00;20.27;;;2.30;78.10;;;;;;4988373;28;20030;-65
2021/01/06 07:28:58;;;;;;;41.83;19.55;;;2.30;78.10;;;;;;4993756;28;20139;-65
2021/01/06 07:31:27;;;;;;;50.58;21.35;;;2.30;78.30;;;;;;4993321;28;20030;-66
2021/01/06 07:34:02;;;;;;;47.40;23.70;;;2.20;78.00;;;;;;4995213;28;20517;-65
2021/01/06 07:36:34;;;;;;;54.15;28.63;;;2.20;78.00;;;;;;4998278;28;20035;-66
2021/01/06 07:39:01;;;;;;;41.10;19.83;;;2.20;78.90;;;;;;4996329;28;20117;-66
2021/01/06 07:41:28;;;;;;;43.05;20.05;;;2.20;78.10;;;;;;4995893;28;21443;-65
2021/01/06 07:44:16;;;;;;;44.05;19.35;;;2.20;78.10;;;;;;4997939;28;20042;-65
2021/01/06 07:47:07;;;;;;;45.67;21.00;;;2.10;78.30;;;;;;4994413;28;20076;-65
2021/01/06 07:49:38;;;;;;;44.25;21.08;;;2.10;78.20;;;;;;4996669;28;20034;-65
2021/01/06 07:52:29;;;;;;;48.90;25.65;;;2.10;77.90;;;;;;4996719;28;20057;-65
2021/01/06 07:55:03;;;;;;;49.05;24.13;;;2.00;78.20;;;;;;4998289;28;20045;-65
2021/01/06 07:58:06;;;;;;;47.80;22.40;;;2.00;78.00;;;;;;4996977;28;20038;-65
2021/01/06 08:00:37;;;;;;;50.30;21.80;;;2.00;78.20;;;;;;4995164;28;20053;-65
2021/01/06 08:03:13;;;;;;;50.15;22.23;;;1.90;78.10;;;;;;4989196;28;20056;-65
2021/01/06 08:05:39;;;;;;;48.42;22.33;;;1.90;78.00;;;;;;5000468;28;20038;-65
2021/01/06 08:08:15;;;;;;;47.50;22.08;;;1.80;78.00;;;;;;4997028;28;20525;-65
2021/01/06 08:10:44;;;;;;;50.20;22.90;;;1.80;78.20;;;;;;4996159;28;20042;-64
2021/01/06 08:13:24;;;;;;;49.63;24.30;;;1.70;78.00;;;;;;4999560;28;20038;-65
2021/01/06 08:16:10;;;;;;;58.85;29.50;;;1.70;78.20;;;;;;5000864;28;20073;-65
2021/01/06 08:18:54;;;;;;;60.40;27.88;;;1.70;78.30;;;;;;4996117;28;20034;-65
2021/01/06 08:21:30;;;;;;;55.22;26.40;;;1.70;78.60;;;;;;4997931;28;20026;-66
2021/01/06 08:24:15;;;;;;;54.60;24.92;;;1.60;78.70;;;;;;4995764;28;20135;-65
2021/01/06 08:26:49;;;;;;;59.47;26.85;;;1.60;78.80;;;;;;4994012;28;20500;-65
2021/01/06 08:29:16;;;;;;;;;;;1.70;78.90;;;;;;4996208;28;20046;-65
2021/01/06 08:31:42;;;;;;;54.38;25.95;;;1.70;79.30;;;;;;4993353;28;19924;-65
2021/01/06 08:34:19;;;;;;;48.13;22.77;;;1.70;78.60;;;;;;4996469;28;20026;-65
2021/01/06 08:36:45;;;;;;;50.25;23.77;;;1.70;78.80;;;;;;5006715;28;20445;-65
2021/01/06 08:39:20;;;;;;;54.53;25.38;;;1.70;78.80;;;;;;5010965;28;20029;-65
2021/01/06 08:41:47;;;;;;;54.50;24.45;;;1.70;78.80;;;;;;5000568;28;20081;-65
2021/01/06 08:44:25;;;;;;;49.53;22.95;;;1.70;78.80;;;;;;4996110;28;20125;-65
2021/01/06 08:46:58;;;;;;;50.00;23.10;;;1.70;78.90;;;;;;4997159;28;20034;-65
2021/01/06 08:49:28;;;;;;;52.28;23.58;;;1.70;78.80;;;;;;4998038;28;20042;-65
2021/01/06 08:52:14;;;;;;;50.17;22.70;;;1.70;78.80;;;;;;4998774;28;20105;-65
2021/01/06 08:54:40;;;;;;;52.22;23.40;;;1.60;79.00;;;;;;4997370;28;20034;-65
2021/01/06 08:57:27;;;;;;;49.03;23.15;;;1.70;78.90;;;;;;4998422;28;20391;-65
2021/01/06 08:59:55;;;;;;;56.17;24.83;;;1.70;79.20;;;;;;4996282;28;20445;-65
2021/01/06 09:02:42;;;;;;;50.15;22.40;;;1.70;79.00;;;;;;4997553;28;20465;-65
2021/01/06 09:05:45;;;;;;;48.40;21.45;;;1.70;79.30;;;;;;4995467;28;20034;-65
2021/01/06 09:08:18;;;;;;;47.35;20.95;;;1.70;79.40;;;;;;4996470;28;20040;-65
2021/01/06 09:11:04;;;;;;;49.33;21.90;;;1.70;79.20;;;;;;4996601;28;20041;-64
2021/01/06 09:14:02;;;;;;;46.63;22.23;;;1.70;79.30;;;;;;4996015;28;20036;-65
2021/01/06 09:17:00;;;;;;;49.58;22.35;;;1.70;79.40;;;;;;4997994;28;20053;-65
2021/01/06 09:19:35;;;;;;;49.30;21.95;;;1.70;79.40;;;;;;4994891;28;20458;-65
2021/01/06 09:22:02;;;;;;;48.38;21.83;;;1.70;79.00;;;;;;4997901;28;20064;-65
2021/01/06 09:24:34;;;;;;;50.33;22.88;;;1.70;79.00;;;;;;4995388;28;20038;-65
2021/01/06 09:27:17;;;;;;;54.40;22.15;;;1.70;79.20;;;;;;4994302;28;20034;-65
2021/01/06 09:29:43;;;;;;;50.65;22.17;;;1.70;79.20;;;;;;4997767;28;20034;-65
2021/01/06 09:32:15;;;;;;;48.58;20.85;;;1.70;79.20;;;;;;4999772;28;20050;-65
2021/01/06 09:34:46;;;;;;;46.38;20.70;;;1.70;79.30;;;;;;4998322;28;20038;-65
2021/01/06 09:37:25;;;;;;;50.13;22.30;;;1.80;79.40;;;;;;4998750;28;20496;-65
2021/01/06 09:39:52;;;;;;;45.20;20.15;;;1.80;79.40;;;;;;5000110;28;20042;-65
2021/01/06 09:42:18;;;;;;;43.97;21.02;;;1.90;79.30;;;;;;4997689;28;20034;-65
2021/01/06 09:44:44;;;;;;;48.28;22.88;;;1.80;79.20;;;;;;4998481;28;20410;-65
2021/01/06 09:47:29;;;;;;;42.03;19.02;;;1.80;79.20;;;;;;4997576;28;20034;-65
2021/01/06 09:49:58;;;;;;;44.35;20.42;;;1.80;79.40;;;;;;4994872;28;20145;-65
2021/01/06 09:52:36;;;;;;;43.00;20.45;;;1.80;78.80;;;;;;5014051;28;20526;-65
2021/01/06 09:55:05;;;;;;;44.03;18.85;;;1.80;79.30;;;;;;4998051;28;20038;-65
2021/01/06 09:57:32;;;;;;;43.20;19.90;;;1.80;79.20;;;;;;4998089;28;20771;-65
2021/01/06 10:00:05;;;;;;;44.58;21.02;;;1.90;79.30;;;;;;5012246;28;20104;-64
2021/01/06 10:02:35;;;;;;;47.53;21.70;;;1.90;79.50;;;;;;4996982;28;20514;-64
2021/01/06 10:05:25;;;;;;;39.45;19.95;;;1.90;79.70;;;;;;4997990;28;20038;-65
2021/01/06 10:08:04;;;;;;;44.28;21.13;;;1.90;79.90;;;;;;4998491;28;20030;-64
2021/01/06 10:10:35;;;;;;;40.50;19.10;;;2.00;79.80;;;;;;4997909;28;20052;-65
2021/01/06 10:13:21;;;;;;;40.15;20.08;;;2.00;79.60;;;;;;4998081;28;20054;-65
2021/01/06 10:15:56;;;;;;;39.95;18.95;;;2.10;79.80;;;;;;4997751;28;20034;-65
2021/01/06 10:18:41;;;;;;;40.25;19.42;;;2.10;79.80;;;;;;4996161;28;20092;-64
2021/01/06 10:21:37;;;;;;;39.17;19.13;;;2.10;79.80;;;;;;4996028;28;20046;-64
2021/01/06 10:24:24;;;;;;;35.22;16.95;;;2.20;79.90;;;;;;4997177;28;20464;-65
2021/01/06 10:27:20;;;;;;;42.00;18.27;;;2.20;79.60;;;;;;4996594;28;20064;-65
2021/01/06 10:29:49;;;;;;;38.00;17.25;;;2.30;79.60;;;;;;4997635;28;20626;-64
2021/01/06 10:32:14;;;;;;;40.40;19.27;;;2.30;79.30;;;;;;4996821;28;20056;-65
2021/01/06 10:34:46;;;;;;;41.92;20.25;;;2.30;79.20;;;;;;4994946;28;20097;-65
2021/01/06 10:37:28;;;;;;;39.63;18.27;;;2.30;79.50;;;;;;4996188;28;20117;-64
2021/01/06 10:40:15;;;;;;;36.70;17.23;;;2.30;79.40;;;;;;4994161;28;20041;-65
2021/01/06 10:42:41;;;;;;;38.05;17.40;;;2.40;79.50;;;;;;4996584;28;20950;-64
2021/01/06 10:45:09;;;;;;;34.95;17.05;;;2.40;79.30;;;;;;4997375;28;20045;-65
2021/01/06 10:47:40;;;;;;;33.47;17.10;;;2.40;79.30;;;;;;4997837;28;20034;-65
2021/01/06 10:50:24;;;;;;;31.58;16.35;;;2.40;79.30;;;;;;4998276;28;20034;-65
2021/01/06 10:53:15;;;;;;;32.55;16.83;;;2.40;79.50;;;;;;4995616;28;20038;-64
2021/01/06 10:55:47;;;;;;;35.20;16.38;;;2.40;79.30;;;;;;4994240;28;20042;-64
2021/01/06 10:58:22;;;;;;;36.72;18.52;;;2.40;79.20;;;;;;4992483;28;20546;-64
2021/01/06 11:01:04;;;;;;;31.58;16.95;;;2.40;79.30;;;;;;4994895;28;20038;-64
2021/01/06 11:03:51;;;;;;;33.10;16.52;;;2.40;79.50;;;;;;4997375;28;20027;-65
2021/01/06 11:06:27;;;;;;;30.75;15.43;;;2.50;79.50;;;;;;4997527;28;20018;-63
2021/01/06 11:08:59;;;;;;;29.50;15.57;;;2.50;79.50;;;;;;4997593;28;20038;-64
2021/01/06 11:11:25;;;;;;;29.25;14.40;;;2.50;79.40;;;;;;5001077;28;20056;-65
2021/01/06 11:13:53;;;;;;;28.27;14.23;;;2.50;79.30;;;;;;4999306;28;20037;-65
2021/01/06 11:16:27;;;;;;;28.48;14.20;;;2.50;79.20;;;;;;5003069;28;20036;-65
2021/01/06 11:18:56;;;;;;;28.08;14.23;;;2.50;79.20;;;;;;5001109;28;20072;-64
2021/01/06 11:21:39;;;;;;;29.70;14.85;;;2.60;79.30;;;;;;5002821;28;20058;-65
2021/01/06 11:24:33;;;;;;;28.30;14.35;;;2.60;79.40;;;;;;5001012;28;20093;-65
2021/01/06 11:27:00;;;;;;;27.58;13.13;;;2.60;79.50;;;;;;5000596;28;20112;-64
2021/01/06 11:29:55;;;;;;;28.85;14.30;;;2.60;79.30;;;;;;5001023;28;20092;-65
2021/01/06 11:32:26;;;;;;;27.60;13.48;;;2.70;79.50;;;;;;5001339;28;20121;-65
2021/01/06 11:35:29;;;;;;;27.20;13.60;;;2.70;79.20;;;;;;5000514;28;20041;-65
2021/01/06 11:37:57;;;;;;;26.20;13.30;;;2.70;79.40;;;;;;5017571;28;20493;-65
2021/01/06 11:40:45;;;;;;;26.67;13.52;;;2.70;79.10;;;;;;5004156;28;20042;-65
2021/01/06 11:43:46;;;;;;;25.98;13.00;;;2.70;79.10;;;;;;5001938;28;20037;-65
2021/01/06 11:46:33;;;;;;;26.63;13.82;;;2.70;79.20;;;;;;5008817;28;20033;-65
2021/01/06 11:49:11;;;;;;;24.75;12.57;;;2.70;79.30;;;;;;5001722;28;20070;-64
2021/01/06 11:51:38;;;;;;;24.48;13.02;;;2.80;79.20;;;;;;5001614;28;20113;-65
2021/01/06 11:54:21;;;;;;;27.70;13.23;;;2.80;79.10;;;;;;5001161;28;20034;-65
2021/01/06 11:56:53;;;;;;;29.77;14.55;;;2.80;79.30;;;;;;5001092;28;20512;-64
2021/01/06 11:59:31;;;;;;;31.15;15.05;;;2.80;79.20;;;;;;5002248;28;20129;-65
2021/01/06 12:02:12;;;;;;;29.73;14.57;;;2.80;79.20;;;;;;5000592;28;20112;-65
2021/01/06 12:05:06;;;;;;;26.42;13.73;;;2.80;79.10;;;;;;5000930;28;20034;-64
2021/01/06 12:07:59;;;;;;;28.73;14.35;;;2.80;79.10;;;;;;5002325;28;20062;-65
2021/01/06 12:10:51;;;;;;;27.02;14.38;;;2.80;79.30;;;;;;4999340;28;20038;-65
2021/01/06 12:13:28;;;;;;;30.08;14.77;;;2.80;79.30;;;;;;4996929;28;20451;-65
2021/01/06 12:16:09;;;;;;;34.28;16.73;;;2.80;79.20;;;;;;4995816;28;20121;-65
2021/01/06 12:19:09;;;;;;;32.20;15.85;;;2.80;79.20;;;;;;4998354;28;20084;-65
2021/01/06 12:21:34;;;;;;;30.27;15.15;;;2.90;79.50;;;;;;4999010;28;20039;-64
2021/01/06 12:24:21;;;;;;;32.55;16.10;;;2.90;79.30;;;;;;5001114;28;20465;-65
2021/01/06 12:27:08;;;;;;;28.58;14.73;;;2.90;79.40;;;;;;5001600;28;20025;-66
2021/01/06 12:29:56;;;;;;;29.15;15.40;;;2.90;79.20;;;;;;5001136;28;20022;-65
2021/01/06 12:32:24;;;;;;;28.98;14.40;;;2.90;79.20;;;;;;5000725;28;20033;-65
2021/01/06 12:34:59;;;;;;;31.75;15.15;;;3.00;79.00;;;;;;5001199;28;20030;-64
2021/01/06 12:37:31;;;;;;;32.20;16.77;;;2.90;78.80;;;;;;5001227;28;20080;-65
2021/01/06 12:40:11;;;;;;;28.83;15.63;;;3.00;78.90;;;;;;5001205;28;20042;-65
2021/01/06 12:42:57;;;;;;;29.55;14.80;;;3.00;78.90;;;;;;5000353;28;20034;-64
2021/01/06 12:45:26;;;;;;;30.70;16.42;;;3.00;78.90;;;;;;4999779;28;20539;-65
2021/01/06 12:48:20;;;;;;;32.10;15.80;;;3.00;78.80;;;;;;4998947;28;20035;-65
2021/01/06 12:50:59;;;;;;;31.05;15.95;;;3.00;79.10;;;;;;4996598;28;20037;-65
2021/01/06 12:53:37;;;;;;;32.35;16.30;;;2.90;78.90;;;;;;4998740;28;20037;-65
2021/01/06 12:56:06;;;;;;;31.00;16.08;;;3.00;79.00;;;;;;4999251;28;20395;-65
2021/01/06 12:58:40;;;;;;;31.20;15.80;;;3.00;79.10;;;;;;4999206;28;20037;-65
2021/01/06 13:01:19;;;;;;;35.90;17.75;;;3.00;79.10;;;;;;4995743;28;20034;-64
2021/01/06 13:03:56;;;;;;;30.40;16.23;;;3.00;79.10;;;;;;4999024;28;20031;-66
2021/01/06 13:06:30;;;;;;;31.00;15.60;;;3.00;79.20;;;;;;4998138;28;20101;-67
2021/01/06 13:09:05;;;;;;;30.85;14.93;;;3.00;79.20;;;;;;4997095;28;20068;-66
2021/01/06 13:11:50;;;;;;;28.00;14.18;;;3.10;79.00;;;;;;4995196;28;20038;-65
2021/01/06 13:14:34;;;;;;;28.90;15.15;;;3.10;79.00;;;;;;4999560;28;20041;-66
2021/01/06 13:17:14;;;;;;;30.95;15.77;;;3.10;79.00;;;;;;4997984;28;20042;-66
2021/01/06 13:20:03;;;;;;;28.48;14.27;;;3.10;79.00;;;;;;4999961;28;20034;-66
2021/01/06 13:22:41;;;;;;;30.30;15.40;;;3.10;79.00;;;;;;4998752;28;20040;-65